createdAt,value
2018-03-24T00:00:39.469Z,2.19
2018-03-24T00:03:05.459Z,2.16
2018-03-24T00:05:31.495Z,2.15
2018-03-24T00:07:57.580Z,2.12
2018-03-24T00:10:23.584Z,2.12
2018-03-24T00:12:49.546Z,2.06
2018-03-24T00:15:15.517Z,2.04
2018-03-24T00:17:41.557Z,2.07
2018-03-24T00:20:07.606Z,2.07
2018-03-24T00:22:33.626Z,2.07
2018-03-24T00:24:59.641Z,2.11
2018-03-24T00:27:25.720Z,2.16
2018-03-24T00:29:51.749Z,2.22
2018-03-24T00:32:17.753Z,2.23
2018-03-24T00:34:43.717Z,2.17
2018-03-24T00:37:09.732Z,2.10
2018-03-24T00:39:35.723Z,2.02
2018-03-24T00:42:01.789Z,1.95
2018-03-24T00:44:27.810Z,1.95
2018-03-24T00:46:53.901Z,1.92
2018-03-24T00:49:19.909Z,2.03
2018-03-24T00:51:45.957Z,2.07
2018-03-24T00:54:12.007Z,2.13
2018-03-24T00:56:38.073Z,2.07
2018-03-24T00:59:04.125Z,2.14
2018-03-24T01:01:30.170Z,2.21
2018-03-24T01:03:56.259Z,2.18
2018-03-24T01:06:22.261Z,2.07
2018-03-24T01:08:48.285Z,2.09
2018-03-24T01:11:14.272Z,2.10
2018-03-24T01:13:40.294Z,2.14
2018-03-24T01:16:06.405Z,2.20
2018-03-24T01:18:32.422Z,2.18
2018-03-24T01:20:58.442Z,2.09
2018-03-24T01:23:24.446Z,1.99
2018-03-24T01:25:50.472Z,1.93
2018-03-24T01:28:16.469Z,1.90
2018-03-24T01:30:42.494Z,1.86
2018-03-24T01:33:08.472Z,1.74
2018-03-24T01:35:34.500Z,1.70
2018-03-24T01:38:00.492Z,1.74
2018-03-24T01:40:27.015Z,1.79
2018-03-24T01:42:53.061Z,1.75
2018-03-24T01:45:19.069Z,1.76
2018-03-24T01:47:45.084Z,1.81
2018-03-24T01:50:11.074Z,1.79
2018-03-24T01:52:37.046Z,1.76
2018-03-24T01:55:03.315Z,1.75
2018-03-24T01:57:29.342Z,1.86
2018-03-24T01:59:55.430Z,1.91
2018-03-24T02:02:21.485Z,1.86
2018-03-24T02:04:47.492Z,1.90
2018-03-24T02:07:13.493Z,1.84
2018-03-24T02:09:39.461Z,1.70
2018-03-24T02:12:05.466Z,1.65
2018-03-24T02:14:31.610Z,1.73
2018-03-24T02:16:58.035Z,1.70
2018-03-24T02:19:24.060Z,1.46
2018-03-24T02:21:50.092Z,1.50
2018-03-24T02:24:16.342Z,1.53
2018-03-24T02:26:42.378Z,1.54
2018-03-24T02:29:08.337Z,1.52
2018-03-24T02:31:34.382Z,1.54
2018-03-24T02:34:00.339Z,1.59
2018-03-24T02:36:26.348Z,1.61
2018-03-24T02:38:52.368Z,1.64
2018-03-24T02:41:18.414Z,1.50
2018-03-24T02:43:44.504Z,1.50
2018-03-24T02:46:10.915Z,1.56
2018-03-24T02:48:36.922Z,1.60
2018-03-24T02:51:02.974Z,1.58
2018-03-24T02:53:29.004Z,1.49
2018-03-24T02:55:55.002Z,1.51
2018-03-24T02:58:21.044Z,1.31
2018-03-24T03:00:47.048Z,1.17
2018-03-24T03:03:13.133Z,0.97
2018-03-24T03:05:39.089Z,1.03
2018-03-24T03:08:05.153Z,0.98
2018-03-24T03:10:31.217Z,0.97
2018-03-24T03:12:57.252Z,0.93
2018-03-24T03:15:23.309Z,0.88
2018-03-24T03:17:49.388Z,0.84
2018-03-24T03:20:15.469Z,0.92
2018-03-24T03:22:41.582Z,0.90
2018-03-24T03:25:07.749Z,0.88
2018-03-24T03:27:33.854Z,0.96
2018-03-24T03:29:59.913Z,0.99
2018-03-24T03:32:26.001Z,0.96
2018-03-24T03:34:52.090Z,0.92
2018-03-24T03:37:18.122Z,0.88
2018-03-24T03:39:44.153Z,0.84
2018-03-24T03:42:10.141Z,0.72
2018-03-24T03:44:36.213Z,0.74
2018-03-24T03:47:02.583Z,0.61
2018-03-24T03:49:28.590Z,0.64
2018-03-24T03:51:54.677Z,0.65
2018-03-24T03:54:20.692Z,0.57
2018-03-24T03:56:46.694Z,0.56
2018-03-24T03:59:12.769Z,0.48
2018-03-24T04:01:38.818Z,0.83
2018-03-24T04:04:04.830Z,0.60
2018-03-24T04:06:31.090Z,0.46
2018-03-24T04:08:57.039Z,0.14
2018-03-24T04:11:23.049Z,0.21
2018-03-24T04:13:49.046Z,0.00
2018-03-24T04:16:15.058Z,0.08
2018-03-24T04:18:41.089Z,0.02
2018-03-24T04:21:07.433Z,-0.05
2018-03-24T04:23:33.429Z,0.01
2018-03-24T04:25:59.506Z,0.31
2018-03-24T04:28:25.601Z,0.61
2018-03-24T04:30:51.612Z,0.52
2018-03-24T04:33:17.673Z,0.61
2018-03-24T04:35:43.713Z,0.53
2018-03-24T04:38:09.714Z,0.34
2018-03-24T04:40:35.674Z,0.54
2018-03-24T04:43:01.746Z,0.61
2018-03-24T04:45:28.042Z,0.65
2018-03-24T04:47:54.053Z,0.62
2018-03-24T04:50:20.067Z,0.31
2018-03-24T04:52:46.425Z,0.01
2018-03-24T04:55:12.443Z,0.02
2018-03-24T04:57:38.495Z,-0.21
2018-03-24T05:00:04.489Z,-0.05
2018-03-24T05:02:30.500Z,0.07
2018-03-24T05:04:56.515Z,0.03
2018-03-24T05:07:22.474Z,-0.05
2018-03-24T05:09:48.478Z,-0.10
2018-03-24T05:12:14.504Z,-0.27
2018-03-24T05:14:40.439Z,-0.34
2018-03-24T05:17:06.473Z,-0.50
2018-03-24T05:19:32.461Z,-0.39
2018-03-24T05:21:58.494Z,-0.33
2018-03-24T05:24:24.485Z,-0.39
2018-03-24T05:26:50.822Z,-0.57
2018-03-24T05:29:16.870Z,-0.69
2018-03-24T05:31:42.889Z,-0.78
2018-03-24T05:34:08.909Z,-0.73
2018-03-24T05:36:34.902Z,-0.70
2018-03-24T05:39:00.942Z,-0.60
2018-03-24T05:41:26.958Z,-0.52
2018-03-24T05:43:53.220Z,-0.43
2018-03-24T05:46:19.455Z,-0.53
2018-03-24T05:48:45.534Z,-0.58
2018-03-24T05:51:11.518Z,-0.39
2018-03-24T05:53:37.479Z,-0.33
2018-03-24T05:56:03.869Z,-0.39
2018-03-24T05:58:30.729Z,-0.13
2018-03-24T06:00:57.212Z,-0.07
2018-03-24T06:03:23.237Z,-0.10
2018-03-24T06:05:49.221Z,-0.15
2018-03-24T06:08:15.268Z,-0.27
2018-03-24T06:10:41.301Z,-0.34
2018-03-24T06:13:07.365Z,-0.43
2018-03-24T06:15:33.434Z,-0.17
2018-03-24T06:17:59.378Z,0.01
2018-03-24T06:20:25.381Z,-0.04
2018-03-24T06:22:51.412Z,0.08
2018-03-24T06:25:17.461Z,0.09
2018-03-24T06:27:43.473Z,-0.11
2018-03-24T06:30:12.366Z,-0.02
2018-03-24T06:32:38.437Z,0.12
2018-03-24T06:35:04.437Z,0.29
2018-03-24T06:37:30.471Z,-0.07
2018-03-24T06:39:56.741Z,0.16
2018-03-24T06:42:22.711Z,0.28
2018-03-24T06:44:48.772Z,0.18
2018-03-24T06:47:14.749Z,0.20
2018-03-24T06:49:40.754Z,0.18
2018-03-24T06:52:06.746Z,0.28
2018-03-24T06:54:32.765Z,0.25
2018-03-24T06:56:58.806Z,0.51
2018-03-24T06:59:24.813Z,0.61
2018-03-24T07:01:50.850Z,0.72
2018-03-24T07:04:16.850Z,0.94
2018-03-24T07:06:42.829Z,1.07
2018-03-24T07:09:08.838Z,1.17
2018-03-24T07:11:34.846Z,1.31
2018-03-24T07:14:00.891Z,1.50
2018-03-24T07:16:26.917Z,1.78
2018-03-24T07:18:52.990Z,1.99
2018-03-24T07:21:19.005Z,2.26
2018-03-24T07:23:45.009Z,2.28
2018-03-24T07:26:11.032Z,2.47
2018-03-24T07:28:37.057Z,2.61
2018-03-24T07:31:03.110Z,2.69
2018-03-24T07:33:29.150Z,2.76
2018-03-24T07:35:55.171Z,2.79
2018-03-24T07:38:21.189Z,3.22
2018-03-24T07:40:47.157Z,3.36
2018-03-24T07:43:13.092Z,3.59
2018-03-24T07:45:39.111Z,3.94
2018-03-24T07:48:05.193Z,3.89
2018-03-24T07:50:31.251Z,4.32
2018-03-24T07:52:57.209Z,4.78
2018-03-24T07:55:23.204Z,5.02
2018-03-24T07:57:49.259Z,5.29
2018-03-24T08:00:15.345Z,4.99
2018-03-24T08:02:41.336Z,5.39
2018-03-24T08:05:07.490Z,5.81
2018-03-24T08:07:33.533Z,5.88
2018-03-24T08:09:59.536Z,5.89
2018-03-24T08:12:25.549Z,5.84
2018-03-24T08:14:51.709Z,6.22
2018-03-24T08:17:17.733Z,6.29
2018-03-24T08:19:43.772Z,6.31
2018-03-24T08:22:09.800Z,6.34
2018-03-24T08:24:35.862Z,6.37
2018-03-24T08:27:01.909Z,6.68
2018-03-24T08:29:27.923Z,6.27
2018-03-24T08:31:53.961Z,6.22
2018-03-24T08:34:19.973Z,6.36
2018-03-24T08:36:46.042Z,6.41
2018-03-24T08:39:12.065Z,6.76
2018-03-24T08:41:38.078Z,6.59
2018-03-24T08:44:04.191Z,6.61
2018-03-24T08:46:30.273Z,6.83
2018-03-24T08:48:56.273Z,6.74
2018-03-24T08:51:22.440Z,6.86
2018-03-24T08:53:48.476Z,6.93
2018-03-24T08:56:14.563Z,6.84
2018-03-24T08:58:40.582Z,6.88
2018-03-24T09:01:06.589Z,6.82
2018-03-24T09:03:32.631Z,6.99
2018-03-24T09:05:58.657Z,7.17
2018-03-24T09:08:24.728Z,7.07
2018-03-24T09:10:50.730Z,7.16
2018-03-24T09:13:16.789Z,7.18
2018-03-24T09:15:42.894Z,7.24
2018-03-24T09:18:08.917Z,7.10
2018-03-24T09:20:34.930Z,7.11
2018-03-24T09:23:01.028Z,7.46
2018-03-24T09:25:27.004Z,7.50
2018-03-24T09:27:53.045Z,7.73
2018-03-24T09:30:19.060Z,7.63
2018-03-24T09:32:45.078Z,7.83
2018-03-24T09:35:11.119Z,7.99
2018-03-24T09:37:37.409Z,7.74
2018-03-24T09:40:03.518Z,7.69
2018-03-24T09:42:29.721Z,7.46
2018-03-24T09:44:55.734Z,7.01
2018-03-24T09:47:21.798Z,7.21
2018-03-24T09:49:47.818Z,7.54
2018-03-24T09:52:13.937Z,7.55
2018-03-24T09:54:39.954Z,7.57
2018-03-24T09:57:06.057Z,7.90
2018-03-24T09:59:32.113Z,8.14
2018-03-24T10:01:58.098Z,8.28
2018-03-24T10:04:24.212Z,7.92
2018-03-24T10:06:50.305Z,7.56
2018-03-24T10:09:16.334Z,7.58
2018-03-24T10:11:42.422Z,7.74
2018-03-24T10:14:08.388Z,7.77
2018-03-24T10:16:34.408Z,7.81
2018-03-24T10:19:00.410Z,7.77
2018-03-24T10:21:47.269Z,7.76
2018-03-24T10:24:28.997Z,7.58
2018-03-24T10:26:55.037Z,7.53
2018-03-24T10:29:21.008Z,7.19
2018-03-24T10:31:47.057Z,7.21
2018-03-24T10:34:13.058Z,7.18
2018-03-24T10:36:39.034Z,7.21
2018-03-24T10:39:05.130Z,6.99
2018-03-24T10:41:31.185Z,7.51
2018-03-24T10:43:57.237Z,7.58
2018-03-24T10:46:23.246Z,7.82
2018-03-24T10:48:49.250Z,7.99
2018-03-24T10:51:15.246Z,8.06
2018-03-24T10:53:41.283Z,7.85
2018-03-24T10:56:07.308Z,7.72
2018-03-24T10:58:33.350Z,7.48
2018-03-24T11:01:05.578Z,7.59
2018-03-24T11:03:31.605Z,8.11
2018-03-24T11:05:57.673Z,8.06
2018-03-24T11:08:23.698Z,7.72
2018-03-24T11:10:49.807Z,7.41
2018-03-24T11:13:15.755Z,7.39
2018-03-24T11:15:41.796Z,7.42
2018-03-24T11:18:07.818Z,7.72
2018-03-24T11:20:34.393Z,7.51
2018-03-24T11:23:00.441Z,7.35
2018-03-24T11:25:26.472Z,7.76
2018-03-24T11:27:52.474Z,8.58
2018-03-24T11:30:18.616Z,8.20
2018-03-24T11:32:44.697Z,7.90
2018-03-24T11:35:10.753Z,8.41
2018-03-24T11:37:36.775Z,8.60
2018-03-24T11:40:02.844Z,8.26
2018-03-24T11:42:28.893Z,7.95
2018-03-24T11:44:54.904Z,7.84
2018-03-24T11:47:21.022Z,8.80
2018-03-24T11:49:47.027Z,9.89
2018-03-24T11:52:13.081Z,9.28
2018-03-24T11:54:43.949Z,8.47
2018-03-24T11:57:09.979Z,8.46
2018-03-24T11:59:36.018Z,8.37
2018-03-24T12:02:02.052Z,8.15
2018-03-24T12:04:28.128Z,8.02
2018-03-24T12:06:54.221Z,8.27
2018-03-24T12:09:20.349Z,8.47
2018-03-24T12:11:46.369Z,9.06
2018-03-24T12:14:12.384Z,9.03
2018-03-24T12:16:38.412Z,9.03
2018-03-24T12:19:04.409Z,9.05
2018-03-24T12:21:30.512Z,9.29
2018-03-24T12:23:56.622Z,9.31
2018-03-24T12:26:22.738Z,10.19
2018-03-24T12:28:48.839Z,9.91
2018-03-24T12:31:14.877Z,9.73
2018-03-24T12:33:40.919Z,10.72
2018-03-24T12:36:06.944Z,9.94
2018-03-24T12:38:32.965Z,8.36
2018-03-24T12:40:58.986Z,8.05
2018-03-24T12:43:24.984Z,8.03
2018-03-24T12:45:51.110Z,8.00
2018-03-24T12:48:17.376Z,8.26
2018-03-24T12:50:43.421Z,8.08
2018-03-24T12:53:09.471Z,8.35
2018-03-24T12:55:35.546Z,8.07
2018-03-24T12:58:02.267Z,7.74
2018-03-24T13:00:28.478Z,8.29
2018-03-24T13:02:54.492Z,8.62
2018-03-24T13:05:20.522Z,8.21
2018-03-24T13:07:46.491Z,8.49
2018-03-24T13:10:12.553Z,8.47
2018-03-24T13:12:38.606Z,8.28
2018-03-24T13:15:04.622Z,8.49
2018-03-24T13:17:30.610Z,8.78
2018-03-24T13:19:56.733Z,8.45
2018-03-24T13:22:22.760Z,8.81
2018-03-24T13:24:48.885Z,9.36
2018-03-24T13:27:14.915Z,9.63
2018-03-24T13:29:40.941Z,9.09
2018-03-24T13:32:06.961Z,9.58
2018-03-24T13:34:32.980Z,9.13
2018-03-24T13:36:59.010Z,10.35
2018-03-24T13:39:25.030Z,9.90
2018-03-24T13:41:51.017Z,10.95
2018-03-24T13:44:17.045Z,10.67
2018-03-24T13:46:43.066Z,10.06
2018-03-24T13:49:09.134Z,9.33
2018-03-24T13:51:35.122Z,9.80
2018-03-24T13:54:01.141Z,9.61
2018-03-24T13:56:27.177Z,10.02
2018-03-24T13:58:53.181Z,10.41
2018-03-24T14:01:19.197Z,11.06
2018-03-24T14:03:45.244Z,11.87
2018-03-24T14:06:11.262Z,10.95
2018-03-24T14:08:37.327Z,11.83
2018-03-24T14:11:03.330Z,11.98
2018-03-24T14:13:29.350Z,11.59
2018-03-24T14:15:55.386Z,10.76
2018-03-24T14:18:21.397Z,11.05
2018-03-24T14:20:47.441Z,10.72
2018-03-24T14:23:13.500Z,11.09
2018-03-24T14:25:39.460Z,11.34
2018-03-24T14:28:05.509Z,10.91
2018-03-24T14:30:31.584Z,10.79
2018-03-24T14:32:57.558Z,11.30
2018-03-24T14:35:23.573Z,11.14
2018-03-24T14:37:49.604Z,11.60
2018-03-24T14:40:15.605Z,12.15
2018-03-24T14:42:41.587Z,11.99
2018-03-24T14:45:07.617Z,11.13
2018-03-24T14:47:33.686Z,10.87
2018-03-24T14:49:59.813Z,11.73
2018-03-24T14:52:25.825Z,11.36
2018-03-24T14:54:51.882Z,10.92
2018-03-24T14:57:17.906Z,11.71
2018-03-24T14:59:43.909Z,11.45
2018-03-24T15:02:10.017Z,11.99
2018-03-24T15:04:36.082Z,11.73
2018-03-24T15:07:02.173Z,11.44
2018-03-24T15:09:28.180Z,10.88
2018-03-24T15:11:54.213Z,11.90
2018-03-24T15:14:20.306Z,11.46
2018-03-24T15:16:46.317Z,10.68
2018-03-24T15:19:12.461Z,11.41
2018-03-24T15:21:38.463Z,11.17
2018-03-24T15:24:04.509Z,10.30
2018-03-24T15:26:30.580Z,10.16
2018-03-24T15:32:14.773Z,10.78
2018-03-24T15:34:53.074Z,11.18
2018-03-24T15:37:19.092Z,11.06
2018-03-24T15:39:45.117Z,11.15
2018-03-24T15:42:11.131Z,11.38
2018-03-24T15:44:37.160Z,11.23
2018-03-24T15:47:03.185Z,10.45
2018-03-24T15:49:29.228Z,10.05
2018-03-24T15:51:55.318Z,9.79
2018-03-24T15:54:21.436Z,9.77
2018-03-24T15:56:47.469Z,9.10
2018-03-24T15:59:13.569Z,8.87
2018-03-24T16:01:39.579Z,8.32
2018-03-24T16:04:05.621Z,8.41
2018-03-24T16:06:31.635Z,8.96
2018-03-24T16:08:57.665Z,8.68
2018-03-24T16:11:23.673Z,8.19
2018-03-24T16:13:49.679Z,8.21
2018-03-24T16:16:15.690Z,8.12
2018-03-24T16:18:41.700Z,8.03
2018-03-24T16:21:07.739Z,7.89
2018-03-24T16:23:33.745Z,7.83
2018-03-24T16:25:59.755Z,7.77
2018-03-24T16:28:25.768Z,7.79
2018-03-24T16:30:51.770Z,7.51
2018-03-24T16:33:17.834Z,7.78
2018-03-24T16:35:43.884Z,7.80
2018-03-24T16:38:09.896Z,7.79
2018-03-24T16:40:35.986Z,7.58
2018-03-24T16:43:02.024Z,7.46
2018-03-24T16:45:27.996Z,7.48
2018-03-24T16:47:54.074Z,7.41
2018-03-24T16:50:20.086Z,7.37
2018-03-24T16:52:46.142Z,7.30
2018-03-24T16:55:12.167Z,7.23
2018-03-24T16:57:38.204Z,7.02
2018-03-24T17:00:04.347Z,7.08
2018-03-24T17:02:30.387Z,7.19
2018-03-24T17:04:56.471Z,7.22
2018-03-24T17:07:22.501Z,7.18
2018-03-24T17:09:48.645Z,6.86
2018-03-24T17:12:14.738Z,6.72
2018-03-24T17:14:40.782Z,6.65
2018-03-24T17:17:06.857Z,6.58
2018-03-24T17:19:32.919Z,6.44
2018-03-24T17:21:58.915Z,6.41
2018-03-24T17:24:25.103Z,6.23
2018-03-24T17:26:51.189Z,6.23
2018-03-24T17:29:17.186Z,6.12
2018-03-24T17:31:43.224Z,6.01
2018-03-24T17:34:09.238Z,6.02
2018-03-24T17:36:35.240Z,5.89
2018-03-24T17:39:01.251Z,5.70
2018-03-24T17:41:27.243Z,5.60
2018-03-24T17:43:53.390Z,5.52
2018-03-24T17:46:19.423Z,5.44
2018-03-24T17:48:45.401Z,5.38
2018-03-24T17:51:11.458Z,5.26
2018-03-24T17:53:37.488Z,5.19
2018-03-24T17:56:03.540Z,5.12
2018-03-24T17:58:30.109Z,5.00
2018-03-24T18:00:56.130Z,4.84
2018-03-24T18:03:22.178Z,4.75
2018-03-24T18:05:48.265Z,4.78
2018-03-24T18:08:14.273Z,4.70
2018-03-24T18:10:40.274Z,4.68
2018-03-24T18:13:06.376Z,4.67
2018-03-24T18:15:32.767Z,4.69
2018-03-24T18:17:58.785Z,4.86
2018-03-24T18:20:24.805Z,4.81
2018-03-24T18:22:50.850Z,4.81
2018-03-24T18:25:16.838Z,4.76
2018-03-24T18:27:42.913Z,4.56
2018-03-24T18:30:08.960Z,4.61
2018-03-24T18:32:34.955Z,4.39
2018-03-24T18:35:01.742Z,4.42
2018-03-24T18:37:27.754Z,4.29
2018-03-24T18:39:53.802Z,4.39
2018-03-24T18:42:19.882Z,4.41
2018-03-24T18:44:45.922Z,4.24
2018-03-24T18:47:11.964Z,4.22
2018-03-24T18:49:38.008Z,4.21
2018-03-24T18:52:04.044Z,4.22
2018-03-24T18:54:30.075Z,4.28
2018-03-24T18:56:56.146Z,4.24
2018-03-24T18:59:22.181Z,4.29
2018-03-24T19:01:48.279Z,4.26
2018-03-24T19:04:14.374Z,4.24
2018-03-24T19:06:40.439Z,4.17
2018-03-24T19:09:06.498Z,3.98
2018-03-24T19:11:32.618Z,3.86
2018-03-24T19:13:58.691Z,3.80
2018-03-24T19:16:24.766Z,3.83
2018-03-24T19:18:50.798Z,3.80
2018-03-24T19:21:16.906Z,3.65
2018-03-24T19:23:42.946Z,3.62
2018-03-24T19:26:08.974Z,3.60
2018-03-24T19:28:35.002Z,3.55
2018-03-24T19:31:01.050Z,3.55
2018-03-24T19:33:27.145Z,3.53
2018-03-24T19:35:53.584Z,3.58
2018-03-24T19:38:19.694Z,3.52
2018-03-24T19:40:45.739Z,3.51
2018-03-24T19:43:11.774Z,3.37
2018-03-24T19:45:37.866Z,3.38
2018-03-24T19:48:03.907Z,3.43
2018-03-24T19:50:29.963Z,3.35
2018-03-24T19:52:56.173Z,3.38
2018-03-24T19:55:22.210Z,3.18
2018-03-24T19:57:48.277Z,3.20
2018-03-24T20:00:14.290Z,3.19
2018-03-24T20:02:40.298Z,3.15
2018-03-24T20:05:06.367Z,3.08
2018-03-24T20:07:32.470Z,3.01
2018-03-24T20:09:58.588Z,2.73
2018-03-24T20:12:32.459Z,2.70
2018-03-24T20:14:58.623Z,2.64
2018-03-24T20:17:24.649Z,2.70
2018-03-24T20:19:50.702Z,2.64
2018-03-24T20:22:16.767Z,2.62
2018-03-24T20:24:42.838Z,2.50
2018-03-24T20:27:08.943Z,2.29
2018-03-24T20:29:35.083Z,2.33
2018-03-24T20:32:01.187Z,2.35
2018-03-24T20:34:27.542Z,2.29
2018-03-24T20:36:53.709Z,2.12
2018-03-24T20:39:19.938Z,2.15
2018-03-24T20:41:45.968Z,2.11
2018-03-24T20:44:12.056Z,2.09
2018-03-24T20:46:38.034Z,2.08
2018-03-24T20:49:04.095Z,2.05
2018-03-24T20:51:30.169Z,1.94
2018-03-24T20:53:56.188Z,1.92
2018-03-24T20:56:22.195Z,1.97
2018-03-24T20:58:48.278Z,1.84
2018-03-24T21:01:14.303Z,1.91
2018-03-24T21:03:40.363Z,1.85
2018-03-24T21:06:06.406Z,1.75
2018-03-24T21:08:32.482Z,1.67
2018-03-24T21:10:58.566Z,1.51
2018-03-24T21:13:24.574Z,1.52
2018-03-24T21:15:50.565Z,1.48
2018-03-24T21:18:16.628Z,1.23
2018-03-24T21:20:42.637Z,1.03
2018-03-24T21:23:08.956Z,0.79
2018-03-24T21:25:35.318Z,0.96
2018-03-24T21:28:01.323Z,1.08
2018-03-24T21:30:27.380Z,1.08
2018-03-24T21:32:53.347Z,1.11
2018-03-24T21:35:19.415Z,0.97
2018-03-24T21:37:45.428Z,1.01
2018-03-24T21:40:11.442Z,1.18
2018-03-24T21:42:37.485Z,1.06
2018-03-24T21:45:03.478Z,1.06
2018-03-24T21:47:29.490Z,0.94
2018-03-24T21:49:55.491Z,0.77
2018-03-24T21:52:21.502Z,0.76
2018-03-24T21:54:47.511Z,0.78
2018-03-24T21:57:13.505Z,0.83
2018-03-24T21:59:39.522Z,0.63
2018-03-24T22:02:05.568Z,0.74
2018-03-24T22:04:31.605Z,0.68
2018-03-24T22:06:57.747Z,0.60
2018-03-24T22:09:23.811Z,0.80
2018-03-24T22:11:49.839Z,0.57
2018-03-24T22:14:15.916Z,0.45
2018-03-24T22:16:42.015Z,0.47
2018-03-24T22:19:08.082Z,0.50
2018-03-24T22:21:34.102Z,0.56
2018-03-24T22:24:00.194Z,0.30
2018-03-24T22:26:26.322Z,0.41
2018-03-24T22:28:52.348Z,0.34
2018-03-24T22:31:18.518Z,0.34
2018-03-24T22:33:44.475Z,0.54
2018-03-24T22:36:10.545Z,0.37
2018-03-24T22:38:36.626Z,0.11
2018-03-24T22:41:02.658Z,-0.01
2018-03-24T22:43:28.686Z,0.15
2018-03-24T22:45:54.671Z,0.10
2018-03-24T22:48:20.763Z,0.18
2018-03-24T22:50:46.807Z,0.25
2018-03-24T22:53:12.858Z,0.27
2018-03-24T22:55:38.949Z,0.25
2018-03-24T22:58:05.041Z,0.29
2018-03-24T23:00:31.007Z,0.27
2018-03-24T23:02:57.013Z,0.06
2018-03-24T23:05:23.037Z,0.06
2018-03-24T23:07:49.112Z,0.19
2018-03-24T23:10:15.173Z,0.01
2018-03-24T23:12:41.203Z,0.13
2018-03-24T23:15:07.236Z,0.07
2018-03-24T23:17:33.238Z,-0.02
2018-03-24T23:19:59.243Z,-0.04
2018-03-24T23:22:25.266Z,-0.03
2018-03-24T23:24:51.263Z,-0.11
2018-03-24T23:27:17.301Z,-0.02
2018-03-24T23:29:43.317Z,-0.13
2018-03-24T23:32:09.337Z,-0.15
2018-03-24T23:34:35.337Z,0.10
2018-03-24T23:37:01.362Z,-0.12
2018-03-24T23:39:27.393Z,-0.16
2018-03-24T23:41:53.465Z,-0.31
2018-03-24T23:44:19.479Z,-0.35
2018-03-24T23:46:45.569Z,-0.30
2018-03-24T23:49:11.624Z,-0.59
2018-03-24T23:51:37.646Z,-1.17
2018-03-24T23:54:03.674Z,-0.98
2018-03-24T23:56:29.698Z,-0.65
2018-03-24T23:58:55.702Z,-0.57
